Time,TemperatureF,DewpointF,PressureIn,WindDirection,WindDirectionDegrees,WindSpeedMPH,WindSpeedGustMPH,Humidity,HourlyPrecipIn,Conditions,Clouds,dailyrainin,SoftwareType,DateUTC
2013-06-23 00:00:00,72.6,68.2,30.04,ESE,110,0.0,0.0,86,0.00,,,0.00,Wunderground v.1.15,2013-06-23 05:00:00,
2013-06-23 00:05:00,72.4,68.0,30.04,ESE,111,0.0,0.0,86,0.00,,,0.00,Wunderground v.1.15,2013-06-23 05:05:00,
2013-06-23 00:15:00,72.2,67.8,30.04,ESE,111,0.0,0.0,86,0.00,,,0.00,Wunderground v.1.15,2013-06-23 05:15:00,
2013-06-23 00:20:00,72.1,67.7,30.04,ESE,115,0.0,0.0,86,0.00,,,0.00,Wunderground v.1.15,2013-06-23 05:20:00,
2013-06-23 00:30:00,71.8,67.4,30.04,ESE,115,0.0,0.0,86,0.00,,,0.00,Wunderground v.1.15,2013-06-23 05:30:00,
2013-06-23 00:35:00,71.7,67.6,30.04,ESE,115,0.0,0.0,87,0.00,,,0.00,Wunderground v.1.15,2013-06-23 05:35:00,
2013-06-23 00:40:00,71.6,67.2,30.04,ESE,115,0.0,0.0,86,0.00,,,0.00,Wunderground v.1.15,2013-06-23 05:40:00,
2013-06-23 00:45:00,71.5,67.1,30.04,ESE,115,0.0,0.0,86,0.00,,,0.00,Wunderground v.1.15,2013-06-23 05:45:00,
2013-06-23 00:50:00,71.3,67.2,30.04,ESE,115,0.0,0.0,87,0.00,,,0.00,Wunderground v.1.15,2013-06-23 05:50:00,
2013-06-23 00:55:00,71.2,67.1,30.04,ESE,115,0.0,0.0,87,0.00,,,0.00,Wunderground v.1.15,2013-06-23 05:55:00,
2013-06-23 01:05:00,71.0,66.9,30.04,ESE,115,0.0,0.0,87,0.00,,,0.00,Wunderground v.1.15,2013-06-23 06:05:00,
2013-06-23 01:15:00,70.3,66.6,30.05,ESE,115,0.0,0.0,88,0.00,,,0.00,Wunderground v.1.15,2013-06-23 06:15:00,
2013-06-23 01:25:00,70.1,66.7,30.05,ESE,115,0.0,0.0,89,0.00,,,0.00,Wunderground v.1.15,2013-06-23 06:25:00,
2013-06-23 01:30:00,70.0,66.6,30.06,North,5,1.0,1.0,89,0.00,,,0.00,Wunderground v.1.15,2013-06-23 06:30:00,
2013-06-23 01:35:00,70.1,67.0,30.07,NW,316,1.0,5.0,90,0.00,,,0.00,Wunderground v.1.15,2013-06-23 06:35:00,
2013-06-23 01:40:00,70.3,66.9,30.07,NW,320,1.0,1.0,89,0.00,,,0.00,Wunderground v.1.15,2013-06-23 06:40:00,
2013-06-23 01:45:00,70.6,67.5,30.07,NW,323,0.0,3.0,90,0.00,,,0.00,Wunderground v.1.15,2013-06-23 06:45:00,
2013-06-23 01:50:00,70.7,67.3,30.06,NW,323,0.0,0.0,89,0.00,,,0.00,Wunderground v.1.15,2013-06-23 06:50:00,
2013-06-23 02:00:00,70.9,67.5,30.06,NW,323,0.0,0.0,89,0.00,,,0.00,Wunderground v.1.15,2013-06-23 07:00:00,
2013-06-23 02:05:00,71.0,67.6,30.06,NW,323,0.0,0.0,89,0.00,,,0.00,Wunderground v.1.15,2013-06-23 07:05:00,
2013-06-23 02:15:00,71.0,67.6,30.06,SW,220,0.0,0.0,89,0.00,,,0.00,Wunderground v.1.15,2013-06-23 07:15:00,
2013-06-23 02:20:00,71.0,67.6,30.06,NNW,342,1.0,1.0,89,0.00,,,0.00,Wunderground v.1.15,2013-06-23 07:20:00,
2013-06-23 02:25:00,71.1,67.7,30.06,NNW,342,0.0,1.0,89,0.00,,,0.00,Wunderground v.1.15,2013-06-23 07:25:00,
2013-06-23 02:35:00,71.2,67.5,30.06,NNW,342,0.0,1.0,88,0.00,,,0.00,Wunderground v.1.15,2013-06-23 07:35:00,
2013-06-23 02:40:00,71.1,67.0,30.06,NNW,342,0.0,0.0,87,0.00,,,0.00,Wunderground v.1.15,2013-06-23 07:40:00,
2013-06-23 02:45:00,71.1,67.0,30.05,NNW,342,0.0,0.0,87,0.00,,,0.00,Wunderground v.1.15,2013-06-23 07:45:00,
2013-06-23 02:50:00,71.0,66.6,30.05,NNW,342,0.0,0.0,86,0.00,,,0.00,Wunderground v.1.15,2013-06-23 07:50:00,
2013-06-23 02:55:00,70.8,66.1,30.04,NNE,17,0.0,0.0,85,0.00,,,0.00,Wunderground v.1.15,2013-06-23 07:55:00,
2013-06-23 03:00:00,70.6,65.9,30.03,NE,37,0.0,0.0,85,0.00,,,0.00,Wunderground v.1.15,2013-06-23 08:00:00,
2013-06-23 03:05:00,70.5,65.8,30.03,East,94,0.0,0.0,85,0.00,,,0.00,Wunderground v.1.15,2013-06-23 08:05:00,
2013-06-23 03:15:00,70.1,65.4,30.03,ESE,121,0.0,0.0,85,0.00,,,0.00,Wunderground v.1.15,2013-06-23 08:15:00,
2013-06-23 03:20:00,69.8,65.4,30.02,ESE,121,0.0,0.0,86,0.00,,,0.00,Wunderground v.1.15,2013-06-23 08:20:00,
2013-06-23 03:25:00,69.6,65.2,30.02,ESE,121,0.0,0.0,86,0.00,,,0.00,Wunderground v.1.15,2013-06-23 08:25:00,
2013-06-23 03:35:00,69.2,64.8,30.01,ESE,121,0.0,0.0,86,0.00,,,0.00,Wunderground v.1.15,2013-06-23 08:35:00,
2013-06-23 03:45:00,68.8,64.8,30.01,ESE,121,0.0,0.0,87,0.00,,,0.00,Wunderground v.1.15,2013-06-23 08:45:00,
2013-06-23 03:50:00,68.8,64.8,30.02,ESE,121,0.0,0.0,87,0.00,,,0.00,Wunderground v.1.15,2013-06-23 08:50:00,
2013-06-23 03:55:00,68.6,64.6,30.02,ESE,123,0.0,4.0,87,0.00,,,0.00,Wunderground v.1.15,2013-06-23 08:55:00,
2013-06-23 04:00:00,68.6,64.6,30.02,ESE,123,0.0,0.0,87,0.00,,,0.00,Wunderground v.1.15,2013-06-23 09:00:00,
2013-06-23 04:05:00,68.6,64.6,30.02,ESE,123,0.0,0.0,87,0.00,,,0.00,Wunderground v.1.15,2013-06-23 09:05:00,
2013-06-23 04:15:00,68.4,64.7,30.03,ESE,123,0.0,0.0,88,0.00,,,0.00,Wunderground v.1.15,2013-06-23 09:15:00,
2013-06-23 04:20:00,68.1,64.4,30.03,ESE,122,0.0,0.0,88,0.00,,,0.00,Wunderground v.1.15,2013-06-23 09:20:00,
2013-06-23 04:25:00,67.8,64.4,30.03,ESE,123,0.0,0.0,89,0.00,,,0.00,Wunderground v.1.15,2013-06-23 09:25:00,
2013-06-23 04:30:00,67.7,64.7,30.04,ESE,123,0.0,0.0,90,0.00,,,0.00,Wunderground v.1.15,2013-06-23 09:30:00,
2013-06-23 04:35:00,67.5,64.5,30.04,ESE,123,0.0,0.0,90,0.00,,,0.00,Wunderground v.1.15,2013-06-23 09:35:00,
2013-06-23 04:45:00,67.2,64.2,30.04,ESE,123,0.0,0.0,90,0.00,,,0.00,Wunderground v.1.15,2013-06-23 09:45:00,
2013-06-23 04:50:00,67.0,64.0,30.05,ESE,123,0.0,0.0,90,0.00,,,0.00,Wunderground v.1.15,2013-06-23 09:50:00,
2013-06-23 04:55:00,66.9,64.2,30.05,ESE,123,0.0,0.0,91,0.00,,,0.00,Wunderground v.1.15,2013-06-23 09:55:00,
2013-06-23 05:00:00,66.8,64.1,30.04,ESE,123,0.0,0.0,91,0.00,,,0.00,Wunderground v.1.15,2013-06-23 10:00:00,
2013-06-23 05:05:00,66.5,63.8,30.04,ESE,123,0.0,0.0,91,0.00,,,0.00,Wunderground v.1.15,2013-06-23 10:05:00,
2013-06-23 05:15:00,66.3,63.9,30.04,ESE,122,0.0,0.0,92,0.00,,,0.00,Wunderground v.1.15,2013-06-23 10:15:00,
2013-06-23 05:25:00,66.1,63.7,30.04,ESE,123,0.0,0.0,92,0.00,,,0.00,Wunderground v.1.15,2013-06-23 10:25:00,
2013-06-23 05:30:00,66.0,63.6,30.04,ESE,123,0.0,0.0,92,0.00,,,0.00,Wunderground v.1.15,2013-06-23 10:30:00,
2013-06-23 05:35:00,65.9,63.5,30.04,ESE,123,0.0,0.0,92,0.00,,,0.00,Wunderground v.1.15,2013-06-23 10:35:00,
2013-06-23 05:40:00,66.0,63.9,30.04,ESE,123,0.0,0.0,93,0.00,,,0.00,Wunderground v.1.15,2013-06-23 10:40:00,
2013-06-23 05:45:00,66.3,64.2,30.03,ESE,122,0.0,0.0,93,0.00,,,0.00,Wunderground v.1.15,2013-06-23 10:45:00,
2013-06-23 05:50:00,66.4,64.3,30.03,ESE,122,0.0,0.0,93,0.00,,,0.00,Wunderground v.1.15,2013-06-23 10:50:00,
2013-06-23 06:00:00,66.9,65.1,30.02,SE,143,0.0,0.0,94,0.00,,,0.00,Wunderground v.1.15,2013-06-23 11:00:00,
2013-06-23 06:05:00,67.0,65.2,30.01,SE,144,0.0,0.0,94,0.00,,,0.00,Wunderground v.1.15,2013-06-23 11:05:00,
2013-06-23 06:15:00,67.4,65.6,30.00,South,169,1.0,1.0,94,0.00,,,0.00,Wunderground v.1.15,2013-06-23 11:15:00,
2013-06-23 06:20:00,67.4,65.6,30.00,SSE,168,1.0,1.0,94,0.00,,,0.00,Wunderground v.1.15,2013-06-23 11:20:00,
2013-06-23 06:30:00,67.5,65.7,30.00,SSE,165,0.0,6.0,94,0.00,,,0.00,Wunderground v.1.15,2013-06-23 11:30:00,
2013-06-23 06:35:00,67.6,65.5,30.00,SE,141,1.0,6.0,93,0.00,,,0.00,Wunderground v.1.15,2013-06-23 11:35:00,
2013-06-23 06:45:00,67.9,65.5,29.99,South,170,0.0,1.0,92,0.00,,,0.00,Wunderground v.1.15,2013-06-23 11:45:00,
2013-06-23 06:50:00,68.1,65.7,29.99,South,169,0.0,0.0,92,0.00,,,0.00,Wunderground v.1.15,2013-06-23 11:50:00,
2013-06-23 07:00:00,68.6,65.5,29.99,SSE,163,1.0,1.0,90,0.00,,,0.00,Wunderground v.1.15,2013-06-23 12:00:00,
2013-06-23 07:05:00,69.0,65.6,29.99,SSE,153,1.0,1.0,89,0.00,,,0.00,Wunderground v.1.15,2013-06-23 12:05:00,
2013-06-23 07:15:00,69.4,66.0,29.99,South,175,0.0,6.0,89,0.00,,,0.00,Wunderground v.1.15,2013-06-23 12:15:00,
2013-06-23 07:25:00,70.0,66.0,29.99,South,181,1.0,5.0,87,0.00,,,0.00,Wunderground v.1.15,2013-06-23 12:25:00,
2013-06-23 07:30:00,70.2,66.1,29.99,SE,141,1.0,5.0,87,0.00,,,0.00,Wunderground v.1.15,2013-06-23 12:30:00,
2013-06-23 07:35:00,70.4,66.3,29.99,SE,133,1.0,5.0,87,0.00,,,0.00,Wunderground v.1.15,2013-06-23 12:35:00,
2013-06-23 07:40:00,70.8,66.4,29.99,SSE,167,1.0,1.0,86,0.00,,,0.00,Wunderground v.1.15,2013-06-23 12:40:00,
2013-06-23 07:45:00,71.2,66.5,30.00,SE,128,1.0,1.0,85,0.00,,,0.00,Wunderground v.1.15,2013-06-23 12:45:00,
2013-06-23 07:50:00,71.4,66.7,29.99,South,171,0.0,0.0,85,0.00,,,0.00,Wunderground v.1.15,2013-06-23 12:50:00,
2013-06-23 07:55:00,71.5,66.4,30.00,SE,128,1.0,6.0,84,0.00,,,0.00,Wunderground v.1.15,2013-06-23 12:55:00,
2013-06-23 08:05:00,71.6,66.5,29.99,SE,134,2.0,5.0,84,0.00,,,0.00,Wunderground v.1.15,2013-06-23 13:05:00,
2013-06-23 08:15:00,72.1,67.0,30.00,East,90,2.0,6.0,84,0.00,,,0.00,Wunderground v.1.15,2013-06-23 13:15:00,
2013-06-23 08:20:00,72.2,67.1,30.00,ESE,111,1.0,1.0,84,0.00,,,0.00,Wunderground v.1.15,2013-06-23 13:20:00,
2013-06-23 08:25:00,72.4,67.3,30.01,SSE,168,1.0,1.0,84,0.00,,,0.00,Wunderground v.1.15,2013-06-23 13:25:00,
2013-06-23 08:35:00,72.7,67.2,30.01,South,171,1.0,5.0,83,0.00,,,0.00,Wunderground v.1.15,2013-06-23 13:35:00,
2013-06-23 08:40:00,72.8,67.7,30.01,SSE,157,1.0,1.0,84,0.00,,,0.00,Wunderground v.1.15,2013-06-23 13:40:00,
2013-06-23 08:45:00,73.2,67.7,30.02,SE,132,1.0,1.0,83,0.00,,,0.00,Wunderground v.1.15,2013-06-23 13:45:00,
2013-06-23 08:50:00,73.4,67.6,30.02,ESE,119,1.0,1.0,82,0.00,,,0.00,Wunderground v.1.15,2013-06-23 13:50:00,
2013-06-23 09:00:00,73.8,68.3,30.02,SSE,148,1.0,1.0,83,0.00,,,0.00,Wunderground v.1.15,2013-06-23 14:00:00,
2013-06-23 09:05:00,74.1,68.3,30.02,SE,146,0.0,1.0,82,0.00,,,0.00,Wunderground v.1.15,2013-06-23 14:05:00,
2013-06-23 09:15:00,74.5,68.6,30.02,SE,124,1.0,1.0,82,0.00,,,0.00,Wunderground v.1.15,2013-06-23 14:15:00,
2013-06-23 09:20:00,74.8,68.9,30.02,SE,138,0.0,0.0,82,0.00,,,0.00,Wunderground v.1.15,2013-06-23 14:20:00,
2013-06-23 09:25:00,75.2,69.3,30.02,SE,136,1.0,2.0,82,0.00,,,0.00,Wunderground v.1.15,2013-06-23 14:25:00,
2013-06-23 09:35:00,75.9,69.3,30.02,ESE,120,1.0,1.0,80,0.00,,,0.00,Wunderground v.1.15,2013-06-23 14:35:00,
2013-06-23 09:40:00,75.7,69.1,30.02,ESE,118,0.0,6.0,80,0.00,,,0.00,Wunderground v.1.15,2013-06-23 14:40:00,
2013-06-23 09:45:00,75.5,68.9,30.02,SE,143,1.0,6.0,80,0.00,,,0.00,Wunderground v.1.15,2013-06-23 14:45:00,
2013-06-23 09:50:00,75.8,69.6,30.01,NW,319,1.0,2.0,81,0.00,,,0.00,Wunderground v.1.15,2013-06-23 14:50:00,
2013-06-23 10:00:00,77.0,70.0,30.01,SSW,210,1.0,1.0,79,0.00,,,0.00,Wunderground v.1.15,2013-06-23 15:00:00,
2013-06-23 10:05:00,77.1,70.1,30.01,ESE,111,1.0,1.0,79,0.00,,,0.00,Wunderground v.1.15,2013-06-23 15:05:00,
2013-06-23 10:15:00,77.2,70.2,30.01,East,80,1.0,1.0,79,0.00,,,0.00,Wunderground v.1.15,2013-06-23 15:15:00,
2013-06-23 10:20:00,77.7,70.7,30.01,ESE,119,1.0,1.0,79,0.00,,,0.00,Wunderground v.1.15,2013-06-23 15:20:00,
2013-06-23 10:30:00,78.1,70.7,30.01,SE,135,1.0,1.0,78,0.00,,,0.00,Wunderground v.1.15,2013-06-23 15:30:00,
2013-06-23 10:40:00,78.4,71.3,30.01,West,270,1.0,1.0,79,0.00,,,0.00,Wunderground v.1.15,2013-06-23 15:40:00,
2013-06-23 10:45:00,79.3,71.1,30.02,ENE,65,1.0,4.0,76,0.00,,,0.00,Wunderground v.1.15,2013-06-23 15:45:00,
2013-06-23 10:50:00,79.8,71.6,30.02,ESE,120,1.0,1.0,76,0.00,,,0.00,Wunderground v.1.15,2013-06-23 15:50:00,
2013-06-23 10:55:00,79.8,71.6,30.02,ESE,118,1.0,1.0,76,0.00,,,0.00,Wunderground v.1.15,2013-06-23 15:55:00,
2013-06-23 11:05:00,79.2,71.4,30.01,SSE,163,1.0,1.0,77,0.00,,,0.00,Wunderground v.1.15,2013-06-23 16:05:00,
2013-06-23 11:15:00,79.6,72.1,30.01,SE,138,1.0,1.0,78,0.00,,,0.00,Wunderground v.1.15,2013-06-23 16:15:00,
2013-06-23 11:20:00,80.1,72.2,30.01,SE,129,1.0,1.0,77,0.00,,,0.00,Wunderground v.1.15,2013-06-23 16:20:00,
2013-06-23 11:25:00,81.2,72.9,30.02,South,184,1.0,1.0,76,0.00,,,0.00,Wunderground v.1.15,2013-06-23 16:25:00,
2013-06-23 11:30:00,81.5,72.4,30.02,SE,140,1.0,1.0,74,0.00,,,0.00,Wunderground v.1.15,2013-06-23 16:30:00,
2013-06-23 11:35:00,80.8,72.1,30.02,ESE,117,1.0,1.0,75,0.00,,,0.00,Wunderground v.1.15,2013-06-23 16:35:00,
2013-06-23 11:45:00,81.0,73.1,30.01,SE,134,1.0,1.0,77,0.00,,,0.00,Wunderground v.1.15,2013-06-23 16:45:00,
2013-06-23 11:50:00,81.8,73.9,30.01,SSW,212,1.0,1.0,77,0.00,,,0.00,Wunderground v.1.15,2013-06-23 16:50:00,
2013-06-23 12:00:00,81.8,73.9,30.00,SE,133,1.0,1.0,77,0.00,,,0.00,Wunderground v.1.15,2013-06-23 17:00:00,
2013-06-23 12:05:00,82.0,73.7,30.00,ESE,113,1.0,1.0,76,0.00,,,0.00,Wunderground v.1.15,2013-06-23 17:05:00,
2013-06-23 12:15:00,82.5,73.4,30.00,ESE,123,1.0,1.0,74,0.00,,,0.00,Wunderground v.1.15,2013-06-23 17:15:00,
2013-06-23 12:20:00,82.7,74.4,30.00,SSW,196,1.0,3.0,76,0.00,,,0.00,Wunderground v.1.15,2013-06-23 17:20:00,
2013-06-23 12:25:00,83.2,74.0,30.00,East,100,0.0,3.0,74,0.00,,,0.00,Wunderground v.1.15,2013-06-23 17:25:00,
2013-06-23 12:30:00,83.4,74.2,29.99,WSW,244,1.0,2.0,74,0.00,,,0.00,Wunderground v.1.15,2013-06-23 17:30:00,
2013-06-23 12:35:00,84.1,74.5,29.99,South,181,1.0,2.0,73,0.00,,,0.00,Wunderground v.1.15,2013-06-23 17:35:00,
2013-06-23 12:40:00,85.0,75.0,30.00,SE,144,0.0,6.0,72,0.00,,,0.00,Wunderground v.1.15,2013-06-23 17:40:00,
2013-06-23 12:45:00,85.0,74.1,29.99,West,270,1.0,6.0,70,0.00,,,0.00,Wunderground v.1.15,2013-06-23 17:45:00,
2013-06-23 12:50:00,85.8,74.0,29.99,West,279,1.0,1.0,68,0.00,,,0.00,Wunderground v.1.15,2013-06-23 17:50:00,
2013-06-23 12:55:00,86.6,74.3,29.99,SSW,205,1.0,2.0,67,0.00,,,0.00,Wunderground v.1.15,2013-06-23 17:55:00,
2013-06-23 13:00:00,86.5,74.2,30.00,NW,326,1.0,1.0,67,0.00,,,0.00,Wunderground v.1.15,2013-06-23 18:00:00,
2013-06-23 13:05:00,86.7,74.9,29.99,ESE,119,1.0,1.0,68,0.00,,,0.00,Wunderground v.1.15,2013-06-23 18:05:00,
2013-06-23 13:15:00,86.7,74.4,29.99,WNW,300,1.0,2.0,67,0.00,,,0.00,Wunderground v.1.15,2013-06-23 18:15:00,
2013-06-23 13:20:00,84.7,69.3,29.99,WSW,252,4.0,5.0,60,0.00,,,0.00,Wunderground v.1.15,2013-06-23 18:20:00,
2013-06-23 13:30:00,80.9,68.0,30.01,NNW,340,5.0,5.0,65,0.00,,,0.00,Wunderground v.1.15,2013-06-23 18:30:00,
2013-06-23 13:35:00,78.6,68.4,30.00,NW,306,3.0,5.0,71,0.22,,,0.02,Wunderground v.1.15,2013-06-23 18:35:00,
2013-06-23 13:40:00,76.5,68.4,30.00,NW,306,1.0,1.0,76,0.08,,,0.02,Wunderground v.1.15,2013-06-23 18:40:00,
2013-06-23 13:45:00,75.5,68.9,29.99,NW,306,0.0,1.0,80,0.05,,,0.02,Wunderground v.1.15,2013-06-23 18:45:00,
2013-06-23 13:50:00,74.9,69.4,29.98,NW,306,0.0,0.0,83,0.00,,,0.02,Wunderground v.1.15,2013-06-23 18:50:00,
2013-06-23 13:55:00,74.6,69.8,29.98,NW,306,0.0,0.0,85,0.00,,,0.02,Wunderground v.1.15,2013-06-23 18:55:00,
2013-06-23 14:00:00,74.8,70.3,29.97,NW,306,0.0,0.0,86,0.00,,,0.02,Wunderground v.1.15,2013-06-23 19:00:00,
2013-06-23 14:05:00,76.2,72.7,29.97,NW,305,0.0,0.0,89,0.00,,,0.02,Wunderground v.1.15,2013-06-23 19:05:00,
2013-06-23 14:15:00,78.4,70.2,29.95,NW,306,0.0,0.0,76,0.00,,,0.02,Wunderground v.1.15,2013-06-23 19:15:00,
2013-06-23 14:20:00,79.4,70.4,29.95,East,91,0.0,0.0,74,0.00,,,0.02,Wunderground v.1.15,2013-06-23 19:20:00,
2013-06-23 14:25:00,80.3,70.9,29.94,East,91,0.0,0.0,73,0.00,,,0.02,Wunderground v.1.15,2013-06-23 19:25:00,
2013-06-23 14:30:00,81.0,71.5,29.93,East,94,0.0,0.0,73,0.00,,,0.02,Wunderground v.1.15,2013-06-23 19:30:00,
2013-06-23 14:40:00,82.6,70.1,29.92,East,92,0.0,0.0,66,0.00,,,0.02,Wunderground v.1.15,2013-06-23 19:40:00,
2013-06-23 14:45:00,81.8,70.2,29.92,East,93,0.0,0.0,68,0.00,,,0.02,Wunderground v.1.15,2013-06-23 19:45:00,
2013-06-23 14:50:00,81.0,70.3,29.92,East,94,0.0,0.0,70,0.00,,,0.02,Wunderground v.1.15,2013-06-23 19:50:00,
2013-06-23 14:55:00,79.9,70.5,29.92,East,94,0.0,0.0,73,0.00,,,0.02,Wunderground v.1.15,2013-06-23 19:55:00,
2013-06-23 15:00:00,79.3,71.1,29.91,East,98,0.0,0.0,76,0.00,,,0.02,Wunderground v.1.15,2013-06-23 20:00:00,
2013-06-23 15:05:00,78.8,71.0,29.91,SSE,165,1.0,1.0,77,0.00,,,0.02,Wunderground v.1.15,2013-06-23 20:05:00,
2013-06-23 15:15:00,78.0,71.0,29.91,SSE,156,1.0,4.0,79,0.00,,,0.02,Wunderground v.1.15,2013-06-23 20:15:00,
2013-06-23 15:20:00,77.4,70.4,29.91,SE,141,2.0,2.0,79,0.00,,,0.02,Wunderground v.1.15,2013-06-23 20:20:00,
2013-06-23 15:25:00,77.2,70.2,29.92,ESE,105,2.0,2.0,79,0.00,,,0.02,Wunderground v.1.15,2013-06-23 20:25:00,
2013-06-23 15:30:00,76.8,70.2,29.92,SSE,167,1.0,1.0,80,0.00,,,0.02,Wunderground v.1.15,2013-06-23 20:30:00,
2013-06-23 15:40:00,76.4,69.8,29.92,SSE,167,0.0,2.0,80,0.00,,,0.02,Wunderground v.1.15,2013-06-23 20:40:00,
2013-06-23 15:45:00,76.2,69.6,29.92,South,175,1.0,2.0,80,0.00,,,0.02,Wunderground v.1.15,2013-06-23 20:45:00,
2013-06-23 15:50:00,75.8,69.6,29.92,SE,136,1.0,1.0,81,0.00,,,0.02,Wunderground v.1.15,2013-06-23 20:50:00,
2013-06-23 15:55:00,75.6,69.7,29.92,SSE,153,0.0,1.0,82,0.00,,,0.02,Wunderground v.1.15,2013-06-23 20:55:00,
2013-06-23 16:00:00,75.4,69.5,29.92,SSE,153,0.0,0.0,82,0.00,,,0.02,Wunderground v.1.15,2013-06-23 21:00:00,
2013-06-23 16:05:00,75.5,70.3,29.93,SSE,152,0.0,0.0,84,0.00,,,0.02,Wunderground v.1.15,2013-06-23 21:05:00,
2013-06-23 16:15:00,75.6,70.1,29.93,SSE,153,0.0,0.0,83,0.00,,,0.02,Wunderground v.1.15,2013-06-23 21:15:00,
2013-06-23 16:20:00,75.8,70.3,29.93,SSE,153,0.0,0.0,83,0.00,,,0.02,Wunderground v.1.15,2013-06-23 21:20:00,
2013-06-23 16:30:00,76.0,70.5,29.93,SSE,152,0.0,0.0,83,0.00,,,0.02,Wunderground v.1.15,2013-06-23 21:30:00,
2013-06-23 16:35:00,76.2,70.7,29.92,SSE,153,0.0,0.0,83,0.00,,,0.02,Wunderground v.1.15,2013-06-23 21:35:00,
2013-06-23 16:40:00,76.4,70.5,29.92,SSE,153,0.0,0.0,82,0.00,,,0.02,Wunderground v.1.15,2013-06-23 21:40:00,
2013-06-23 16:45:00,76.6,70.3,29.92,SSE,153,0.0,0.0,81,0.00,,,0.02,Wunderground v.1.15,2013-06-23 21:45:00,
2013-06-23 16:50:00,76.8,70.2,29.93,SSE,153,0.0,0.0,80,0.00,,,0.02,Wunderground v.1.15,2013-06-23 21:50:00,
2013-06-23 16:55:00,76.9,69.9,29.92,SSE,152,0.0,0.0,79,0.00,,,0.02,Wunderground v.1.15,2013-06-23 21:55:00,
2013-06-23 17:00:00,77.1,70.5,29.93,SSE,153,0.0,0.0,80,0.00,,,0.02,Wunderground v.1.15,2013-06-23 22:00:00,
2013-06-23 17:05:00,77.3,70.6,29.93,SSE,153,0.0,0.0,80,0.00,,,0.02,Wunderground v.1.15,2013-06-23 22:05:00,
2013-06-23 17:15:00,77.5,70.5,29.93,SSE,153,0.0,0.0,79,0.00,,,0.02,Wunderground v.1.15,2013-06-23 22:15:00,
2013-06-23 17:25:00,77.4,70.4,29.93,SSE,153,0.0,0.0,79,0.00,,,0.02,Wunderground v.1.15,2013-06-23 22:25:00,
2013-06-23 17:30:00,77.4,70.4,29.94,SSE,153,0.0,0.0,79,0.00,,,0.02,Wunderground v.1.15,2013-06-23 22:30:00,
2013-06-23 17:35:00,77.3,70.3,29.95,SSE,152,0.0,0.0,79,0.00,,,0.02,Wunderground v.1.15,2013-06-23 22:35:00,
2013-06-23 17:40:00,77.3,70.6,29.95,SSE,153,0.0,0.0,80,0.00,,,0.02,Wunderground v.1.15,2013-06-23 22:40:00,
2013-06-23 17:45:00,77.4,70.4,29.95,SSE,153,0.0,0.0,79,0.00,,,0.02,Wunderground v.1.15,2013-06-23 22:45:00,
2013-06-23 17:50:00,77.3,70.6,29.96,SSE,153,0.0,0.0,80,0.00,,,0.02,Wunderground v.1.15,2013-06-23 22:50:00,
2013-06-23 17:55:00,77.1,70.5,29.96,SSE,153,0.0,0.0,80,0.00,,,0.02,Wunderground v.1.15,2013-06-23 22:55:00,
2013-06-23 18:00:00,77.0,70.0,29.97,SSE,153,0.0,0.0,79,0.00,,,0.02,Wunderground v.1.15,2013-06-23 23:00:00,
2013-06-23 18:05:00,77.0,70.4,29.97,SE,135,0.0,0.0,80,0.00,,,0.02,Wunderground v.1.15,2013-06-23 23:05:00,
2013-06-23 18:15:00,77.0,70.7,29.99,SE,135,0.0,0.0,81,0.00,,,0.02,Wunderground v.1.15,2013-06-23 23:15:00,
2013-06-23 18:20:00,77.0,70.7,29.99,SE,134,0.0,0.0,81,0.00,,,0.02,Wunderground v.1.15,2013-06-23 23:20:00,
2013-06-23 18:30:00,77.0,70.7,29.98,SSE,166,0.0,0.0,81,0.00,,,0.02,Wunderground v.1.15,2013-06-23 23:30:00,
2013-06-23 18:35:00,76.9,70.6,29.98,SSE,157,0.0,0.0,81,0.00,,,0.02,Wunderground v.1.15,2013-06-23 23:35:00,
2013-06-23 18:45:00,76.7,70.8,29.98,SSE,150,0.0,1.0,82,0.00,,,0.02,Wunderground v.1.15,2013-06-23 23:45:00,
2013-06-23 18:50:00,76.6,71.0,29.98,SSE,161,0.0,2.0,83,0.00,,,0.02,Wunderground v.1.15,2013-06-23 23:50:00,
2013-06-23 19:00:00,76.5,70.9,29.98,SSE,160,0.0,0.0,83,0.00,,,0.02,Wunderground v.1.15,2013-06-24 00:00:00,
2013-06-23 19:05:00,76.4,70.9,29.99,SSE,160,0.0,0.0,83,0.00,,,0.02,Wunderground v.1.15,2013-06-24 00:05:00,
2013-06-23 19:15:00,76.4,70.9,29.99,SE,135,0.0,0.0,83,0.00,,,0.02,Wunderground v.1.15,2013-06-24 00:15:00,
2013-06-23 19:20:00,76.3,70.8,29.99,SE,134,0.0,0.0,83,0.00,,,0.02,Wunderground v.1.15,2013-06-24 00:20:00,
2013-06-23 19:25:00,76.2,70.7,29.99,SE,135,0.0,0.0,83,0.00,,,0.02,Wunderground v.1.15,2013-06-24 00:25:00,
2013-06-23 19:30:00,76.1,70.6,30.00,SE,136,0.0,0.0,83,0.00,,,0.02,Wunderground v.1.15,2013-06-24 00:30:00,
2013-06-23 19:40:00,75.8,70.3,29.99,SE,136,0.0,0.0,83,0.00,,,0.02,Wunderground v.1.15,2013-06-24 00:40:00,
2013-06-23 19:45:00,75.7,70.2,29.99,SE,135,0.0,0.0,83,0.00,,,0.02,Wunderground v.1.15,2013-06-24 00:45:00,
2013-06-23 19:50:00,75.5,70.3,29.99,SE,136,0.0,0.0,84,0.00,,,0.02,Wunderground v.1.15,2013-06-24 00:50:00,
2013-06-23 19:55:00,75.3,70.1,29.99,SE,136,0.0,0.0,84,0.00,,,0.02,Wunderground v.1.15,2013-06-24 00:55:00,
2013-06-23 20:05:00,74.9,70.1,29.99,SE,136,0.0,0.0,85,0.00,,,0.02,Wunderground v.1.15,2013-06-24 01:05:00,
2013-06-23 20:15:00,74.6,69.8,29.99,SE,136,0.0,0.0,85,0.00,,,0.02,Wunderground v.1.15,2013-06-24 01:15:00,
2013-06-23 20:20:00,74.4,69.6,29.99,SE,136,0.0,0.0,85,0.00,,,0.02,Wunderground v.1.15,2013-06-24 01:20:00,
2013-06-23 20:25:00,74.2,69.4,29.99,SE,136,0.0,0.0,85,0.00,,,0.02,Wunderground v.1.15,2013-06-24 01:25:00,
2013-06-23 20:35:00,73.9,69.4,29.98,SE,136,0.0,0.0,86,0.00,,,0.02,Wunderground v.1.15,2013-06-24 01:35:00,
2013-06-23 20:40:00,73.8,69.3,29.98,SE,136,0.0,0.0,86,0.00,,,0.02,Wunderground v.1.15,2013-06-24 01:40:00,
2013-06-23 20:45:00,73.6,69.2,29.99,SE,136,0.0,0.0,86,0.00,,,0.02,Wunderground v.1.15,2013-06-24 01:45:00,
2013-06-23 20:50:00,73.4,69.3,29.99,SE,136,0.0,0.0,87,0.00,,,0.02,Wunderground v.1.15,2013-06-24 01:50:00,
2013-06-23 20:55:00,73.3,69.2,29.99,SE,136,0.0,0.0,87,0.00,,,0.02,Wunderground v.1.15,2013-06-24 01:55:00,
2013-06-23 21:00:00,73.1,69.0,29.99,SE,136,0.0,0.0,87,0.00,,,0.02,Wunderground v.1.15,2013-06-24 02:00:00,
2013-06-23 21:05:00,72.6,68.8,29.99,SE,136,0.0,0.0,88,0.00,,,0.02,Wunderground v.1.15,2013-06-24 02:05:00,
2013-06-23 21:15:00,72.2,68.4,29.99,SE,136,0.0,0.0,88,0.00,,,0.02,Wunderground v.1.15,2013-06-24 02:15:00,
2013-06-23 21:20:00,72.1,68.7,29.99,SE,136,0.0,0.0,89,0.00,,,0.02,Wunderground v.1.15,2013-06-24 02:20:00,
2013-06-23 21:25:00,71.8,68.4,29.99,SE,136,0.0,0.0,89,0.00,,,0.02,Wunderground v.1.15,2013-06-24 02:25:00,
2013-06-23 21:30:00,71.7,68.3,29.99,SE,136,0.0,0.0,89,0.00,,,0.02,Wunderground v.1.15,2013-06-24 02:30:00,
2013-06-23 21:35:00,71.4,68.0,29.99,SE,136,0.0,0.0,89,0.00,,,0.02,Wunderground v.1.15,2013-06-24 02:35:00,
2013-06-23 21:40:00,71.2,68.1,30.00,SE,135,0.0,0.0,90,0.00,,,0.02,Wunderground v.1.15,2013-06-24 02:40:00,
2013-06-23 21:45:00,70.9,67.8,29.99,SE,136,0.0,0.0,90,0.00,,,0.02,Wunderground v.1.15,2013-06-24 02:45:00,
2013-06-23 21:55:00,70.8,68.0,29.99,SE,136,0.0,0.0,91,0.00,,,0.02,Wunderground v.1.15,2013-06-24 02:55:00,
2013-06-23 22:00:00,70.9,68.1,30.00,SE,135,0.0,0.0,91,0.00,,,0.02,Wunderground v.1.15,2013-06-24 03:00:00,
2013-06-23 22:05:00,70.8,68.0,30.00,SE,136,0.0,0.0,91,0.00,,,0.02,Wunderground v.1.15,2013-06-24 03:05:00,
2013-06-23 22:15:00,70.7,67.9,30.00,SE,136,0.0,0.0,91,0.00,,,0.02,Wunderground v.1.15,2013-06-24 03:15:00,
2013-06-23 22:20:00,70.7,67.9,30.00,SE,136,0.0,0.0,91,0.00,,,0.02,Wunderground v.1.15,2013-06-24 03:20:00,
2013-06-23 22:25:00,70.8,68.0,30.00,SE,136,0.0,0.0,91,0.00,,,0.02,Wunderground v.1.15,2013-06-24 03:25:00,
2013-06-23 22:30:00,70.8,68.0,30.01,SE,136,0.0,0.0,91,0.00,,,0.02,Wunderground v.1.15,2013-06-24 03:30:00,
2013-06-23 22:35:00,70.7,67.9,30.01,SE,136,0.0,0.0,91,0.00,,,0.02,Wunderground v.1.15,2013-06-24 03:35:00,
2013-06-23 22:40:00,70.6,67.8,30.01,SE,136,0.0,0.0,91,0.00,,,0.02,Wunderground v.1.15,2013-06-24 03:40:00,
2013-06-23 22:50:00,70.3,67.5,30.01,SE,136,0.0,0.0,91,0.00,,,0.02,Wunderground v.1.15,2013-06-24 03:50:00,
2013-06-23 23:00:00,70.4,68.0,30.01,SE,136,0.0,0.0,92,0.00,,,0.02,Wunderground v.1.15,2013-06-24 04:00:00,
2013-06-23 23:05:00,70.5,68.1,30.01,SE,136,0.0,0.0,92,0.00,,,0.02,Wunderground v.1.15,2013-06-24 04:05:00,
2013-06-23 23:10:00,70.6,68.2,30.01,SE,136,0.0,0.0,92,0.00,,,0.02,Wunderground v.1.15,2013-06-24 04:10:00,
2013-06-23 23:15:00,70.6,68.2,30.02,SE,136,0.0,0.0,92,0.00,,,0.02,Wunderground v.1.15,2013-06-24 04:15:00,
2013-06-23 23:20:00,70.6,68.2,30.02,SE,136,0.0,0.0,92,0.00,,,0.02,Wunderground v.1.15,2013-06-24 04:20:00,
2013-06-23 23:25:00,70.4,68.0,30.02,SE,136,0.0,0.0,92,0.00,,,0.02,Wunderground v.1.15,2013-06-24 04:25:00,
2013-06-23 23:30:00,70.3,67.9,30.02,SE,136,0.0,0.0,92,0.00,,,0.02,Wunderground v.1.15,2013-06-24 04:30:00,
2013-06-23 23:35:00,70.3,67.9,30.02,SE,136,0.0,0.0,92,0.00,,,0.02,Wunderground v.1.15,2013-06-24 04:35:00,
2013-06-23 23:40:00,70.4,68.0,30.02,SE,136,0.0,0.0,92,0.00,,,0.02,Wunderground v.1.15,2013-06-24 04:40:00,
2013-06-23 23:45:00,70.4,68.0,30.02,SE,136,0.0,0.0,92,0.00,,,0.02,Wunderground v.1.15,2013-06-24 04:45:00,
2013-06-23 23:50:00,70.4,68.0,30.01,SE,136,0.0,0.0,92,0.00,,,0.02,Wunderground v.1.15,2013-06-24 04:50:00,